sensor_id;sensor_type;location;lat;lon;timestamp;P1;durP1;ratioP1;P2;durP2;ratioP2
61458;SDS011;47324;48.760;9.156;2023-11-21T00:00:06;7.23;;;1.60;;
61458;SDS011;47324;48.760;9.156;2023-11-21T00:02:55;4.33;;;1.70;;
61458;SDS011;47324;48.760;9.156;2023-11-21T00:05:39;6.73;;;1.60;;
61458;SDS011;47324;48.760;9.156;2023-11-21T00:08:25;7.13;;;1.60;;
61458;SDS011;47324;48.760;9.156;2023-11-21T00:11:09;6.33;;;1.57;;
61458;SDS011;47324;48.760;9.156;2023-11-21T00:13:54;6.17;;;1.77;;
61458;SDS011;47324;48.760;9.156;2023-11-21T00:16:38;5.90;;;2.07;;
61458;SDS011;47324;48.760;9.156;2023-11-21T00:19:23;7.60;;;1.60;;
61458;SDS011;47324;48.760;9.156;2023-11-21T00:22:08;5.43;;;2.33;;
61458;SDS011;47324;48.760;9.156;2023-11-21T00:24:53;5.50;;;2.23;;
61458;SDS011;47324;48.760;9.156;2023-11-21T00:27:37;6.23;;;1.93;;
61458;SDS011;47324;48.760;9.156;2023-11-21T00:30:21;5.07;;;1.47;;
61458;SDS011;47324;48.760;9.156;2023-11-21T00:33:06;4.13;;;1.60;;
61458;SDS011;47324;48.760;9.156;2023-11-21T00:35:51;5.03;;;1.87;;
61458;SDS011;47324;48.760;9.156;2023-11-21T00:38:35;3.70;;;1.30;;
61458;SDS011;47324;48.760;9.156;2023-11-21T00:41:23;2.83;;;1.50;;
61458;SDS011;47324;48.760;9.156;2023-11-21T00:44:07;4.97;;;1.60;;
61458;SDS011;47324;48.760;9.156;2023-11-21T00:46:51;6.87;;;1.87;;
61458;SDS011;47324;48.760;9.156;2023-11-21T00:49:36;5.67;;;1.90;;
61458;SDS011;47324;48.760;9.156;2023-11-21T00:52:23;6.77;;;1.60;;
61458;SDS011;47324;48.760;9.156;2023-11-21T00:55:08;5.03;;;1.17;;
61458;SDS011;47324;48.760;9.156;2023-11-21T00:57:53;5.17;;;1.90;;
61458;SDS011;47324;48.760;9.156;2023-11-21T01:00:38;4.23;;;1.60;;
61458;SDS011;47324;48.760;9.156;2023-11-21T01:03:23;6.63;;;1.63;;
61458;SDS011;47324;48.760;9.156;2023-11-21T01:06:08;3.20;;;1.20;;
61458;SDS011;47324;48.760;9.156;2023-11-21T01:08:52;4.87;;;1.50;;
61458;SDS011;47324;48.760;9.156;2023-11-21T01:11:37;2.53;;;1.20;;
61458;SDS011;47324;48.760;9.156;2023-11-21T01:14:21;5.77;;;1.57;;
61458;SDS011;47324;48.760;9.156;2023-11-21T01:17:06;3.00;;;1.23;;
61458;SDS011;47324;48.760;9.156;2023-11-21T01:19:51;3.93;;;1.50;;
61458;SDS011;47324;48.760;9.156;2023-11-21T01:22:35;3.50;;;1.73;;
61458;SDS011;47324;48.760;9.156;2023-11-21T01:25:20;5.83;;;1.63;;
61458;SDS011;47324;48.760;9.156;2023-11-21T01:28:06;3.97;;;1.50;;
61458;SDS011;47324;48.760;9.156;2023-11-21T01:30:52;3.10;;;1.10;;
61458;SDS011;47324;48.760;9.156;2023-11-21T01:33:40;1.93;;;0.83;;
61458;SDS011;47324;48.760;9.156;2023-11-21T01:36:32;4.47;;;1.57;;
61458;SDS011;47324;48.760;9.156;2023-11-21T01:39:20;3.83;;;1.30;;
61458;SDS011;47324;48.760;9.156;2023-11-21T01:42:07;4.30;;;1.20;;
61458;SDS011;47324;48.760;9.156;2023-11-21T01:44:52;5.50;;;1.13;;
61458;SDS011;47324;48.760;9.156;2023-11-21T01:47:37;2.07;;;1.00;;
61458;SDS011;47324;48.760;9.156;2023-11-21T01:50:21;2.73;;;0.83;;
61458;SDS011;47324;48.760;9.156;2023-11-21T01:53:06;3.27;;;0.63;;
61458;SDS011;47324;48.760;9.156;2023-11-21T01:55:50;5.57;;;1.50;;
61458;SDS011;47324;48.760;9.156;2023-11-21T01:58:35;3.53;;;1.50;;
61458;SDS011;47324;48.760;9.156;2023-11-21T02:01:20;3.20;;;0.90;;
61458;SDS011;47324;48.760;9.156;2023-11-21T02:04:04;2.70;;;1.10;;
61458;SDS011;47324;48.760;9.156;2023-11-21T02:06:49;4.87;;;1.17;;
61458;SDS011;47324;48.760;9.156;2023-11-21T02:09:35;2.43;;;0.80;;
61458;SDS011;47324;48.760;9.156;2023-11-21T02:12:22;3.37;;;1.13;;
61458;SDS011;47324;48.760;9.156;2023-11-21T02:15:06;1.77;;;0.90;;
61458;SDS011;47324;48.760;9.156;2023-11-21T02:17:59;2.43;;;1.00;;
61458;SDS011;47324;48.760;9.156;2023-11-21T02:20:45;3.53;;;1.13;;
61458;SDS011;47324;48.760;9.156;2023-11-21T02:23:30;2.43;;;0.70;;
61458;SDS011;47324;48.760;9.156;2023-11-21T02:26:16;4.57;;;1.03;;
61458;SDS011;47324;48.760;9.156;2023-11-21T02:29:01;2.03;;;1.03;;
61458;SDS011;47324;48.760;9.156;2023-11-21T02:31:51;3.20;;;1.07;;
61458;SDS011;47324;48.760;9.156;2023-11-21T02:34:36;1.60;;;0.73;;
61458;SDS011;47324;48.760;9.156;2023-11-21T02:37:20;1.50;;;0.63;;
61458;SDS011;47324;48.760;9.156;2023-11-21T02:40:04;3.17;;;1.30;;
61458;SDS011;47324;48.760;9.156;2023-11-21T02:42:53;3.30;;;0.80;;
61458;SDS011;47324;48.760;9.156;2023-11-21T02:45:38;5.73;;;1.20;;
61458;SDS011;47324;48.760;9.156;2023-11-21T02:48:22;2.20;;;0.80;;
61458;SDS011;47324;48.760;9.156;2023-11-21T02:51:09;2.50;;;0.70;;
61458;SDS011;47324;48.760;9.156;2023-11-21T02:53:54;2.07;;;0.87;;
61458;SDS011;47324;48.760;9.156;2023-11-21T02:56:38;2.07;;;0.83;;
61458;SDS011;47324;48.760;9.156;2023-11-21T02:59:23;5.40;;;0.73;;
61458;SDS011;47324;48.760;9.156;2023-11-21T03:02:08;3.77;;;1.00;;
61458;SDS011;47324;48.760;9.156;2023-11-21T03:04:52;1.37;;;0.90;;
61458;SDS011;47324;48.760;9.156;2023-11-21T03:07:37;3.77;;;0.70;;
61458;SDS011;47324;48.760;9.156;2023-11-21T03:10:24;4.67;;;1.00;;
61458;SDS011;47324;48.760;9.156;2023-11-21T03:13:08;1.20;;;0.60;;
61458;SDS011;47324;48.760;9.156;2023-11-21T03:15:52;2.13;;;0.70;;
61458;SDS011;47324;48.760;9.156;2023-11-21T03:18:39;5.33;;;1.00;;
61458;SDS011;47324;48.760;9.156;2023-11-21T03:21:23;3.23;;;0.73;;
61458;SDS011;47324;48.760;9.156;2023-11-21T03:24:08;4.23;;;1.03;;
61458;SDS011;47324;48.760;9.156;2023-11-21T03:26:52;1.30;;;0.60;;
61458;SDS011;47324;48.760;9.156;2023-11-21T03:29:37;3.93;;;0.70;;
61458;SDS011;47324;48.760;9.156;2023-11-21T03:32:21;4.23;;;0.77;;
61458;SDS011;47324;48.760;9.156;2023-11-21T03:35:05;2.40;;;0.80;;
61458;SDS011;47324;48.760;9.156;2023-11-21T03:37:50;1.27;;;0.63;;
61458;SDS011;47324;48.760;9.156;2023-11-21T03:40:36;3.50;;;0.90;;
61458;SDS011;47324;48.760;9.156;2023-11-21T03:43:20;2.20;;;0.60;;
61458;SDS011;47324;48.760;9.156;2023-11-21T03:46:09;2.23;;;0.83;;
61458;SDS011;47324;48.760;9.156;2023-11-21T03:48:54;1.87;;;0.60;;
61458;SDS011;47324;48.760;9.156;2023-11-21T03:51:39;3.23;;;0.70;;
61458;SDS011;47324;48.760;9.156;2023-11-21T03:54:24;4.70;;;0.73;;
61458;SDS011;47324;48.760;9.156;2023-11-21T03:57:08;2.83;;;1.10;;
61458;SDS011;47324;48.760;9.156;2023-11-21T03:59:53;1.70;;;0.73;;
61458;SDS011;47324;48.760;9.156;2023-11-21T04:02:38;2.73;;;0.90;;
61458;SDS011;47324;48.760;9.156;2023-11-21T04:05:22;2.50;;;0.73;;
61458;SDS011;47324;48.760;9.156;2023-11-21T04:08:07;3.93;;;0.90;;
61458;SDS011;47324;48.760;9.156;2023-11-21T04:10:51;5.20;;;0.90;;
61458;SDS011;47324;48.760;9.156;2023-11-21T04:13:38;2.43;;;0.80;;
61458;SDS011;47324;48.760;9.156;2023-11-21T04:16:23;1.97;;;0.80;;
61458;SDS011;47324;48.760;9.156;2023-11-21T04:19:07;3.60;;;0.70;;
61458;SDS011;47324;48.760;9.156;2023-11-21T04:21:53;4.20;;;0.70;;
61458;SDS011;47324;48.760;9.156;2023-11-21T04:24:37;5.07;;;0.80;;
61458;SDS011;47324;48.760;9.156;2023-11-21T04:27:21;1.20;;;0.70;;
61458;SDS011;47324;48.760;9.156;2023-11-21T04:30:06;2.03;;;0.70;;
61458;SDS011;47324;48.760;9.156;2023-11-21T04:32:51;2.40;;;1.07;;
61458;SDS011;47324;48.760;9.156;2023-11-21T04:35:35;1.07;;;0.53;;
61458;SDS011;47324;48.760;9.156;2023-11-21T04:38:20;0.93;;;0.53;;
61458;SDS011;47324;48.760;9.156;2023-11-21T04:41:04;1.43;;;0.50;;
61458;SDS011;47324;48.760;9.156;2023-11-21T04:43:48;2.67;;;0.60;;
61458;SDS011;47324;48.760;9.156;2023-11-21T04:46:33;1.13;;;0.80;;
61458;SDS011;47324;48.760;9.156;2023-11-21T04:49:17;3.73;;;0.87;;
61458;SDS011;47324;48.760;9.156;2023-11-21T04:52:02;1.77;;;1.07;;
61458;SDS011;47324;48.760;9.156;2023-11-21T04:54:47;0.87;;;0.50;;
61458;SDS011;47324;48.760;9.156;2023-11-21T04:57:33;2.70;;;0.60;;
61458;SDS011;47324;48.760;9.156;2023-11-21T05:00:18;2.80;;;0.87;;
61458;SDS011;47324;48.760;9.156;2023-11-21T05:03:04;2.10;;;0.73;;
61458;SDS011;47324;48.760;9.156;2023-11-21T05:05:49;1.00;;;0.60;;
61458;SDS011;47324;48.760;9.156;2023-11-21T05:08:33;1.73;;;0.70;;
61458;SDS011;47324;48.760;9.156;2023-11-21T05:11:28;2.07;;;0.60;;
61458;SDS011;47324;48.760;9.156;2023-11-21T05:14:13;0.80;;;0.60;;
61458;SDS011;47324;48.760;9.156;2023-11-21T05:16:58;1.63;;;0.77;;
61458;SDS011;47324;48.760;9.156;2023-11-21T05:19:43;4.60;;;0.77;;
61458;SDS011;47324;48.760;9.156;2023-11-21T05:22:30;1.83;;;0.70;;
61458;SDS011;47324;48.760;9.156;2023-11-21T05:25:14;5.63;;;1.40;;
61458;SDS011;47324;48.760;9.156;2023-11-21T05:27:58;2.33;;;0.70;;
61458;SDS011;47324;48.760;9.156;2023-11-21T05:30:45;1.03;;;0.60;;
61458;SDS011;47324;48.760;9.156;2023-11-21T05:33:30;1.80;;;0.80;;
61458;SDS011;47324;48.760;9.156;2023-11-21T05:36:15;1.73;;;0.80;;
61458;SDS011;47324;48.760;9.156;2023-11-21T05:39:00;2.90;;;0.70;;
61458;SDS011;47324;48.760;9.156;2023-11-21T05:41:44;2.17;;;0.80;;
61458;SDS011;47324;48.760;9.156;2023-11-21T05:44:29;1.13;;;0.50;;
61458;SDS011;47324;48.760;9.156;2023-11-21T05:47:22;0.73;;;0.47;;
61458;SDS011;47324;48.760;9.156;2023-11-21T05:50:08;1.87;;;0.90;;
61458;SDS011;47324;48.760;9.156;2023-11-21T05:52:58;1.20;;;0.60;;
61458;SDS011;47324;48.760;9.156;2023-11-21T05:55:44;2.37;;;1.10;;
61458;SDS011;47324;48.760;9.156;2023-11-21T05:58:29;3.13;;;0.63;;
61458;SDS011;47324;48.760;9.156;2023-11-21T06:01:14;1.10;;;0.57;;
61458;SDS011;47324;48.760;9.156;2023-11-21T06:03:59;3.37;;;0.60;;
61458;SDS011;47324;48.760;9.156;2023-11-21T06:06:43;1.80;;;0.77;;
61458;SDS011;47324;48.760;9.156;2023-11-21T06:09:28;3.73;;;0.87;;
61458;SDS011;47324;48.760;9.156;2023-11-21T06:12:12;1.37;;;0.60;;
61458;SDS011;47324;48.760;9.156;2023-11-21T06:14:56;3.57;;;0.80;;
61458;SDS011;47324;48.760;9.156;2023-11-21T06:17:41;1.50;;;0.73;;
61458;SDS011;47324;48.760;9.156;2023-11-21T06:20:26;1.93;;;0.70;;
61458;SDS011;47324;48.760;9.156;2023-11-21T06:23:21;2.33;;;0.70;;
61458;SDS011;47324;48.760;9.156;2023-11-21T06:26:05;3.87;;;1.27;;
61458;SDS011;47324;48.760;9.156;2023-11-21T06:28:50;1.20;;;0.67;;
61458;SDS011;47324;48.760;9.156;2023-11-21T06:31:35;1.10;;;0.60;;
61458;SDS011;47324;48.760;9.156;2023-11-21T06:34:19;2.77;;;0.90;;
61458;SDS011;47324;48.760;9.156;2023-11-21T06:37:04;2.10;;;0.90;;
61458;SDS011;47324;48.760;9.156;2023-11-21T06:39:50;0.80;;;0.50;;
61458;SDS011;47324;48.760;9.156;2023-11-21T06:42:36;2.20;;;0.57;;
61458;SDS011;47324;48.760;9.156;2023-11-21T06:45:22;1.17;;;0.60;;
61458;SDS011;47324;48.760;9.156;2023-11-21T06:48:07;2.83;;;1.20;;
61458;SDS011;47324;48.760;9.156;2023-11-21T06:50:51;1.57;;;0.80;;
61458;SDS011;47324;48.760;9.156;2023-11-21T06:53:36;1.10;;;0.73;;
61458;SDS011;47324;48.760;9.156;2023-11-21T06:56:21;1.77;;;0.70;;
61458;SDS011;47324;48.760;9.156;2023-11-21T06:59:05;0.57;;;0.57;;
61458;SDS011;47324;48.760;9.156;2023-11-21T07:01:52;2.87;;;0.63;;
61458;SDS011;47324;48.760;9.156;2023-11-21T07:04:37;3.53;;;1.40;;
61458;SDS011;47324;48.760;9.156;2023-11-21T07:07:21;2.50;;;1.47;;
61458;SDS011;47324;48.760;9.156;2023-11-21T07:10:07;4.23;;;1.50;;
61458;SDS011;47324;48.760;9.156;2023-11-21T07:12:52;1.30;;;0.70;;
61458;SDS011;47324;48.760;9.156;2023-11-21T07:15:37;1.87;;;0.70;;
61458;SDS011;47324;48.760;9.156;2023-11-21T07:18:22;1.23;;;0.67;;
61458;SDS011;47324;48.760;9.156;2023-11-21T07:21:07;1.27;;;0.63;;
61458;SDS011;47324;48.760;9.156;2023-11-21T07:23:53;0.77;;;0.60;;
61458;SDS011;47324;48.760;9.156;2023-11-21T07:26:37;1.73;;;0.93;;
61458;SDS011;47324;48.760;9.156;2023-11-21T07:29:21;3.10;;;0.80;;
61458;SDS011;47324;48.760;9.156;2023-11-21T07:32:06;1.93;;;0.90;;
61458;SDS011;47324;48.760;9.156;2023-11-21T07:34:50;3.90;;;0.97;;
61458;SDS011;47324;48.760;9.156;2023-11-21T07:37:34;3.43;;;0.73;;
61458;SDS011;47324;48.760;9.156;2023-11-21T07:40:18;4.03;;;0.70;;
61458;SDS011;47324;48.760;9.156;2023-11-21T07:43:03;1.40;;;0.87;;
61458;SDS011;47324;48.760;9.156;2023-11-21T07:45:50;1.97;;;0.90;;
61458;SDS011;47324;48.760;9.156;2023-11-21T07:48:34;8.30;;;1.00;;
61458;SDS011;47324;48.760;9.156;2023-11-21T07:51:19;4.30;;;1.53;;
61458;SDS011;47324;48.760;9.156;2023-11-21T07:54:03;5.33;;;2.27;;
61458;SDS011;47324;48.760;9.156;2023-11-21T07:56:47;6.30;;;2.87;;
61458;SDS011;47324;48.760;9.156;2023-11-21T07:59:31;3.93;;;1.77;;
61458;SDS011;47324;48.760;9.156;2023-11-21T08:02:16;1.60;;;1.07;;
61458;SDS011;47324;48.760;9.156;2023-11-21T08:05:01;2.77;;;1.07;;
61458;SDS011;47324;48.760;9.156;2023-11-21T08:07:47;2.67;;;1.13;;
61458;SDS011;47324;48.760;9.156;2023-11-21T08:10:31;2.13;;;0.90;;
61458;SDS011;47324;48.760;9.156;2023-11-21T08:13:15;2.10;;;0.93;;
61458;SDS011;47324;48.760;9.156;2023-11-21T08:16:01;1.93;;;0.70;;
61458;SDS011;47324;48.760;9.156;2023-11-21T08:18:47;1.50;;;0.80;;
61458;SDS011;47324;48.760;9.156;2023-11-21T08:21:31;3.03;;;0.80;;
61458;SDS011;47324;48.760;9.156;2023-11-21T08:24:17;3.83;;;0.77;;
61458;SDS011;47324;48.760;9.156;2023-11-21T08:27:02;3.90;;;1.50;;
61458;SDS011;47324;48.760;9.156;2023-11-21T08:29:48;4.70;;;1.97;;
61458;SDS011;47324;48.760;9.156;2023-11-21T08:32:33;5.07;;;1.60;;
61458;SDS011;47324;48.760;9.156;2023-11-21T08:35:17;4.27;;;1.87;;
61458;SDS011;47324;48.760;9.156;2023-11-21T08:38:02;4.03;;;1.20;;
61458;SDS011;47324;48.760;9.156;2023-11-21T08:40:47;1.73;;;0.80;;
61458;SDS011;47324;48.760;9.156;2023-11-21T08:43:31;1.70;;;0.83;;
61458;SDS011;47324;48.760;9.156;2023-11-21T08:46:15;2.13;;;1.10;;
61458;SDS011;47324;48.760;9.156;2023-11-21T08:49:02;3.83;;;1.13;;
61458;SDS011;47324;48.760;9.156;2023-11-21T08:51:46;1.50;;;0.97;;
61458;SDS011;47324;48.760;9.156;2023-11-21T08:54:32;1.97;;;1.17;;
61458;SDS011;47324;48.760;9.156;2023-11-21T08:57:16;2.63;;;1.17;;
61458;SDS011;47324;48.760;9.156;2023-11-21T09:00:02;1.63;;;0.87;;
61458;SDS011;47324;48.760;9.156;2023-11-21T09:02:47;2.87;;;1.00;;
61458;SDS011;47324;48.760;9.156;2023-11-21T09:05:31;2.43;;;0.90;;
61458;SDS011;47324;48.760;9.156;2023-11-21T09:08:15;3.30;;;1.00;;
61458;SDS011;47324;48.760;9.156;2023-11-21T09:11:00;4.13;;;0.80;;
61458;SDS011;47324;48.760;9.156;2023-11-21T09:13:47;2.70;;;0.90;;
61458;SDS011;47324;48.760;9.156;2023-11-21T09:16:31;1.63;;;0.80;;
61458;SDS011;47324;48.760;9.156;2023-11-21T09:19:16;1.00;;;0.70;;
61458;SDS011;47324;48.760;9.156;2023-11-21T09:22:00;1.40;;;0.60;;
61458;SDS011;47324;48.760;9.156;2023-11-21T09:24:44;1.30;;;0.80;;
61458;SDS011;47324;48.760;9.156;2023-11-21T09:27:29;2.03;;;0.90;;
61458;SDS011;47324;48.760;9.156;2023-11-21T09:30:13;1.00;;;0.80;;
61458;SDS011;47324;48.760;9.156;2023-11-21T09:33:02;2.47;;;0.87;;
61458;SDS011;47324;48.760;9.156;2023-11-21T09:35:46;2.23;;;0.80;;
61458;SDS011;47324;48.760;9.156;2023-11-21T09:38:32;1.40;;;0.70;;
61458;SDS011;47324;48.760;9.156;2023-11-21T09:41:21;1.77;;;0.70;;
61458;SDS011;47324;48.760;9.156;2023-11-21T09:44:05;1.67;;;0.67;;
61458;SDS011;47324;48.760;9.156;2023-11-21T09:46:55;2.67;;;1.00;;
61458;SDS011;47324;48.760;9.156;2023-11-21T09:49:44;1.70;;;0.70;;
61458;SDS011;47324;48.760;9.156;2023-11-21T09:52:31;2.57;;;0.70;;
61458;SDS011;47324;48.760;9.156;2023-11-21T09:55:18;2.13;;;0.90;;
61458;SDS011;47324;48.760;9.156;2023-11-21T09:58:05;1.40;;;0.57;;
61458;SDS011;47324;48.760;9.156;2023-11-21T10:00:56;1.53;;;0.67;;
61458;SDS011;47324;48.760;9.156;2023-11-21T10:03:41;0.93;;;0.67;;
61458;SDS011;47324;48.760;9.156;2023-11-21T10:06:27;1.63;;;0.80;;
61458;SDS011;47324;48.760;9.156;2023-11-21T10:09:14;4.33;;;1.10;;
61458;SDS011;47324;48.760;9.156;2023-11-21T10:12:00;0.93;;;0.60;;
61458;SDS011;47324;48.760;9.156;2023-11-21T10:14:46;1.20;;;0.50;;
61458;SDS011;47324;48.760;9.156;2023-11-21T10:17:32;2.30;;;0.50;;
61458;SDS011;47324;48.760;9.156;2023-11-21T10:20:23;1.90;;;0.53;;
61458;SDS011;47324;48.760;9.156;2023-11-21T10:23:08;1.57;;;0.60;;
61458;SDS011;47324;48.760;9.156;2023-11-21T10:25:55;5.73;;;2.53;;
61458;SDS011;47324;48.760;9.156;2023-11-21T10:28:54;2.33;;;1.07;;
61458;SDS011;47324;48.760;9.156;2023-11-21T10:31:39;1.83;;;0.60;;
61458;SDS011;47324;48.760;9.156;2023-11-21T10:34:24;2.57;;;0.50;;
61458;SDS011;47324;48.760;9.156;2023-11-21T10:37:12;0.53;;;0.40;;
61458;SDS011;47324;48.760;9.156;2023-11-21T10:39:57;1.43;;;0.53;;
61458;SDS011;47324;48.760;9.156;2023-11-21T10:42:41;2.60;;;0.50;;
61458;SDS011;47324;48.760;9.156;2023-11-21T10:45:25;1.47;;;0.70;;
61458;SDS011;47324;48.760;9.156;2023-11-21T10:48:13;1.43;;;0.50;;
61458;SDS011;47324;48.760;9.156;2023-11-21T10:51:05;1.40;;;0.60;;
61458;SDS011;47324;48.760;9.156;2023-11-21T10:53:51;0.70;;;0.50;;
61458;SDS011;47324;48.760;9.156;2023-11-21T10:56:36;1.13;;;0.70;;
61458;SDS011;47324;48.760;9.156;2023-11-21T10:59:28;2.10;;;0.83;;
61458;SDS011;47324;48.760;9.156;2023-11-21T11:02:25;1.47;;;0.40;;
61458;SDS011;47324;48.760;9.156;2023-11-21T11:05:16;1.53;;;0.50;;
61458;SDS011;47324;48.760;9.156;2023-11-21T11:08:06;0.80;;;0.50;;
61458;SDS011;47324;48.760;9.156;2023-11-21T11:10:51;1.60;;;0.80;;
61458;SDS011;47324;48.760;9.156;2023-11-21T11:13:37;3.33;;;0.80;;
61458;SDS011;47324;48.760;9.156;2023-11-21T11:16:21;2.83;;;0.70;;
61458;SDS011;47324;48.760;9.156;2023-11-21T11:19:07;3.33;;;0.80;;
61458;SDS011;47324;48.760;9.156;2023-11-21T11:27:48;0.97;;;0.50;;
61458;SDS011;47324;48.760;9.156;2023-11-21T11:33:28;2.10;;;0.77;;
61458;SDS011;47324;48.760;9.156;2023-11-21T11:39:00;1.63;;;0.70;;
61458;SDS011;47324;48.760;9.156;2023-11-21T11:41:45;1.27;;;0.57;;
61458;SDS011;47324;48.760;9.156;2023-11-21T11:47:31;0.77;;;0.60;;
61458;SDS011;47324;48.760;9.156;2023-11-21T11:50:21;1.40;;;0.70;;
61458;SDS011;47324;48.760;9.156;2023-11-21T11:53:12;0.60;;;0.47;;
61458;SDS011;47324;48.760;9.156;2023-11-21T11:59:01;0.73;;;0.47;;
61458;SDS011;47324;48.760;9.156;2023-11-21T12:01:48;1.30;;;0.53;;
61458;SDS011;47324;48.760;9.156;2023-11-21T12:04:33;0.87;;;0.40;;
61458;SDS011;47324;48.760;9.156;2023-11-21T12:07:20;1.60;;;0.63;;
61458;SDS011;47324;48.760;9.156;2023-11-21T12:10:06;1.35;;;0.77;;
61458;SDS011;47324;48.760;9.156;2023-11-21T12:12:51;1.53;;;0.73;;
61458;SDS011;47324;48.760;9.156;2023-11-21T12:15:39;1.37;;;0.70;;
61458;SDS011;47324;48.760;9.156;2023-11-21T12:18:25;1.90;;;0.70;;
61458;SDS011;47324;48.760;9.156;2023-11-21T12:21:11;1.13;;;0.50;;
61458;SDS011;47324;48.760;9.156;2023-11-21T12:24:01;0.65;;;0.50;;
61458;SDS011;47324;48.760;9.156;2023-11-21T12:26:45;1.10;;;0.60;;
61458;SDS011;47324;48.760;9.156;2023-11-21T12:29:31;1.57;;;0.63;;
61458;SDS011;47324;48.760;9.156;2023-11-21T12:32:17;1.08;;;0.68;;
61458;SDS011;47324;48.760;9.156;2023-11-21T12:35:03;1.63;;;0.75;;
61458;SDS011;47324;48.760;9.156;2023-11-21T12:37:51;0.83;;;0.70;;
61458;SDS011;47324;48.760;9.156;2023-11-21T12:40:36;1.65;;;0.80;;
61458;SDS011;47324;48.760;9.156;2023-11-21T12:43:20;2.33;;;0.80;;
61458;SDS011;47324;48.760;9.156;2023-11-21T12:46:05;1.90;;;1.00;;
61458;SDS011;47324;48.760;9.156;2023-11-21T12:48:50;1.47;;;0.80;;
61458;SDS011;47324;48.760;9.156;2023-11-21T12:51:34;1.38;;;0.70;;
61458;SDS011;47324;48.760;9.156;2023-11-21T12:57:53;1.45;;;0.80;;
61458;SDS011;47324;48.760;9.156;2023-11-21T13:00:45;0.93;;;0.70;;
61458;SDS011;47324;48.760;9.156;2023-11-21T13:03:30;0.63;;;0.60;;
61458;SDS011;47324;48.760;9.156;2023-11-21T13:06:17;0.73;;;0.50;;
61458;SDS011;47324;48.760;9.156;2023-11-21T13:09:03;0.87;;;0.60;;
